Airfield :
LOGIN :

Register | Disclaimer

   EN    FR    IT 

 










Legend :    VFR   Marginal VFR   IFR   Intensive IFR   Very Intensive IFR
Visi :
Ceiling :
>= 8 km
>= 3000ft
5 to 8 km
1000 to 3000 ft
1500m to 5 km
500 to 1000 ft
800 to 1500m
200 to 500 ft
< 800m
< 200 ft
Symbols :   Thunderstorms  Fog  Heavy snow  Heavy precipitations  Wind > 20 kt
SIGMETs :     Misc.  Thunderstorms  Icing  Turbulence  Mountain Waves  Volcanic Ashes






- Airport Elevation : 160 ft
- IATA code : LRT


LFRH - Lorient Lann Bihoue

CURRENT METAR :
  • 170730Z AUTO 08003KT 9999 SCT018 SCT025 14/13 Q1014 BECMG 18010KT

EXPIRED METARs :
  • 170700Z AUTO 07003KT 9999 FEW012 SCT022 12/12 Q1014 TEMPO 3000 BR BECMG 18010KT
  • 170630Z AUTO 07004KT 7000 R25/1400U VV/// 10/10 Q1014 TEMPO 3000 BR BECMG 18010KT NSC
  • 170600Z AUTO 07005KT 0750 0550 R25/0700U R07///// FG VV/// 09/09 Q1014 TEMPO 3000 BR BECMG NSC
  • 170530Z AUTO 07005KT 1800 1300 R25/1400D R07///// BR VV/// 10/10 Q1014 TEMPO 3000 BR BECMG NSC
  • 170500Z AUTO 07003KT 9999 VV/// 09/09 Q1015 TEMPO 0500 FG

TAF TAF LFRH
Valid from the 17 at 06:00 until the 18 at 06:00 UTC


170500Z 1706/1806 VRB04KT CAVOK
TEMPO 1706/1708 3000 BR
TEMPO 1706/1707 0500 FG VV///
BECMG 1708/1710 18010KT
BECMG 1719/1721 VRB05KT BKN020
TEMPO 1719/1724 -RA SCT005 BKN014
TEMPO 1800/1806 BKN003



MET'MAP, your aeronautical weather chart ! - Copyright ORBIFLY December 2007 - Disclaimer

ORBIFLY MET'MAP TEAM :

Programming & Development : Alexandra Zaïnal
Concept & original design : Baudouin d'Aumeries
Assistance for programming : Marc-Olivier Méhu
Technical & hardware support : Manuel Goepfert

Contact : metmap@orbifly.com




SOURCES & CREDITS :

   NOAA